createdAt,value
2022-11-19T00:00:25.217Z,4.30
2022-11-19T00:01:28.535Z,4.23
2022-11-19T00:02:30.002Z,4.30
2022-11-19T00:03:33.364Z,5.47
2022-11-19T00:04:35.141Z,4.80
2022-11-19T00:05:44.199Z,4.47
2022-11-19T00:06:45.961Z,4.60
2022-11-19T00:07:47.740Z,4.97
2022-11-19T00:08:49.265Z,4.40
2022-11-19T00:09:50.733Z,5.13
2022-11-19T00:10:52.209Z,4.30
2022-11-19T00:12:12.536Z,4.33
2022-11-19T00:13:15.202Z,4.30
2022-11-19T00:14:16.970Z,4.80
2022-11-19T00:15:18.403Z,4.70
2022-11-19T00:16:19.787Z,4.80
2022-11-19T00:17:21.235Z,4.87
2022-11-19T00:18:22.629Z,4.50
2022-11-19T00:19:24.606Z,5.57
2022-11-19T00:20:26.843Z,4.77
2022-11-19T00:21:28.360Z,4.70
2022-11-19T00:22:29.787Z,5.70
2022-11-19T00:23:31.297Z,4.47
2022-11-19T00:24:32.952Z,5.20
2022-11-19T00:25:34.569Z,5.03
2022-11-19T00:26:36.200Z,5.37
2022-11-19T00:27:37.907Z,5.00
2022-11-19T00:28:40.113Z,5.07
2022-11-19T00:29:41.645Z,4.90
2022-11-19T00:30:50.117Z,5.20
2022-11-19T00:31:51.548Z,4.97
2022-11-19T00:32:52.949Z,5.07
2022-11-19T00:33:54.807Z,5.23
2022-11-19T00:34:56.370Z,5.07
2022-11-19T00:35:59.081Z,4.43
2022-11-19T00:37:00.885Z,4.83
2022-11-19T00:38:02.331Z,4.83
2022-11-19T00:39:03.794Z,5.43
2022-11-19T00:40:07.939Z,4.93
2022-11-19T00:41:09.859Z,5.07
2022-11-19T00:42:11.662Z,5.20
2022-11-19T00:43:32.184Z,5.40
2022-11-19T00:44:37.208Z,5.23
2022-11-19T00:45:40.749Z,5.03
2022-11-19T00:46:42.205Z,5.00
2022-11-19T00:47:43.593Z,5.10
2022-11-19T00:48:45.826Z,5.17
2022-11-19T00:49:47.254Z,4.70
2022-11-19T00:50:48.700Z,4.70
2022-11-19T00:51:50.472Z,4.93
2022-11-19T00:52:51.879Z,4.40
2022-11-19T00:53:53.612Z,4.73
2022-11-19T00:54:55.179Z,5.20
2022-11-19T00:56:00.646Z,5.53
2022-11-19T00:57:02.205Z,5.10
2022-11-19T00:58:03.791Z,4.67
2022-11-19T00:59:05.778Z,4.93
2022-11-19T01:00:08.084Z,5.50
2022-11-19T01:01:11.400Z,4.97
2022-11-19T01:02:12.853Z,5.00
2022-11-19T01:03:14.280Z,5.03
2022-11-19T01:04:15.966Z,5.10
2022-11-19T01:05:17.445Z,5.13
2022-11-19T01:06:23.089Z,5.53
2022-11-19T01:07:24.556Z,5.90
2022-11-19T01:08:26.494Z,5.50
2022-11-19T01:09:29.480Z,4.80
2022-11-19T01:10:30.899Z,5.03
2022-11-19T01:11:35.221Z,5.13
2022-11-19T01:12:56.748Z,5.20
2022-11-19T01:13:59.201Z,4.70
2022-11-19T01:15:00.754Z,5.20
2022-11-19T01:16:08.839Z,5.33
2022-11-19T01:17:10.741Z,5.60
2022-11-19T01:18:12.124Z,5.50
2022-11-19T01:19:16.281Z,5.50
2022-11-19T01:20:18.029Z,4.93
2022-11-19T01:21:21.840Z,4.90
2022-11-19T01:22:23.257Z,4.70
2022-11-19T01:23:24.785Z,5.37
2022-11-19T01:24:26.171Z,5.67
2022-11-19T01:25:27.613Z,5.23
2022-11-19T01:26:29.576Z,4.90
2022-11-19T01:27:32.129Z,5.87
2022-11-19T01:28:33.595Z,4.97
2022-11-19T01:29:35.047Z,4.87
2022-11-19T01:30:40.634Z,4.93
2022-11-19T01:31:42.089Z,4.80
2022-11-19T01:32:43.581Z,5.40
2022-11-19T01:33:45.761Z,5.03
2022-11-19T01:34:47.274Z,5.07
2022-11-19T01:36:05.967Z,5.10
2022-11-19T01:37:07.403Z,4.97
2022-11-19T01:38:09.084Z,4.73
2022-11-19T01:39:10.663Z,4.83
2022-11-19T01:40:12.908Z,4.80
2022-11-19T01:41:14.270Z,5.00
2022-11-19T01:42:51.018Z,5.50
2022-11-19T01:43:59.401Z,4.93
2022-11-19T01:45:03.996Z,5.10
2022-11-19T01:46:05.641Z,5.10
2022-11-19T01:47:07.036Z,6.60
2022-11-19T01:48:31.066Z,4.73
2022-11-19T01:49:32.500Z,5.00
2022-11-19T01:50:39.679Z,5.17
2022-11-19T01:51:44.128Z,4.73
2022-11-19T01:52:45.898Z,4.27
2022-11-19T01:53:50.185Z,4.87
2022-11-19T01:54:54.220Z,5.07
2022-11-19T01:55:59.601Z,4.97
2022-11-19T01:57:05.732Z,4.80
2022-11-19T01:58:07.914Z,4.73
2022-11-19T01:59:14.138Z,4.37
2022-11-19T02:00:16.150Z,4.80
2022-11-19T02:01:19.624Z,4.80
2022-11-19T02:02:22.830Z,5.47
2022-11-19T02:03:27.784Z,5.00
2022-11-19T02:04:30.152Z,4.80
2022-11-19T02:05:31.850Z,4.83
2022-11-19T02:06:34.314Z,4.33
2022-11-19T02:07:38.432Z,4.43
2022-11-19T02:08:50.533Z,4.57
2022-11-19T02:09:52.238Z,4.67
2022-11-19T02:11:10.703Z,4.47
2022-11-19T02:12:47.832Z,4.53
2022-11-19T02:14:13.689Z,4.63
2022-11-19T02:15:27.349Z,4.80
2022-11-19T02:16:47.332Z,4.70
2022-11-19T02:18:14.440Z,4.50
2022-11-19T02:19:37.542Z,4.63
2022-11-19T02:20:45.053Z,5.03
2022-11-19T02:22:26.122Z,4.37
2022-11-19T02:23:58.965Z,4.50
2022-11-19T02:25:08.056Z,4.50
2022-11-19T02:26:28.414Z,4.60
2022-11-19T02:28:05.910Z,4.70
2022-11-19T02:29:10.539Z,4.50
2022-11-19T02:30:17.637Z,4.30
2022-11-19T02:31:44.203Z,4.37
2022-11-19T02:32:48.663Z,4.43
2022-11-19T02:33:50.038Z,4.87
2022-11-19T02:35:21.011Z,4.77
2022-11-19T02:36:30.438Z,4.87
2022-11-19T02:37:41.826Z,4.97
2022-11-19T02:39:04.508Z,4.83
2022-11-19T02:40:09.965Z,4.47
2022-11-19T02:41:34.331Z,4.50
2022-11-19T02:42:52.422Z,4.73
2022-11-19T02:44:21.164Z,4.70
2022-11-19T02:45:53.128Z,4.70
2022-11-19T02:46:55.786Z,4.73
2022-11-19T02:48:03.067Z,5.00
2022-11-19T02:49:05.870Z,4.50
2022-11-19T02:50:18.308Z,4.80
2022-11-19T02:51:20.060Z,4.80
2022-11-19T02:52:22.262Z,4.40
2022-11-19T02:53:24.130Z,4.73
2022-11-19T02:54:27.649Z,5.20
2022-11-19T02:55:29.141Z,4.40
2022-11-19T02:56:52.945Z,4.50
2022-11-19T02:58:38.836Z,4.93
2022-11-19T03:00:30.940Z,4.57
2022-11-19T03:01:54.670Z,4.80
2022-11-19T03:03:20.917Z,4.10
2022-11-19T03:04:30.775Z,4.40
2022-11-19T03:05:35.001Z,4.90
2022-11-19T03:06:37.260Z,4.40
2022-11-19T03:07:38.980Z,4.67
2022-11-19T03:08:40.741Z,4.10
2022-11-19T03:09:48.625Z,4.57
2022-11-19T03:11:07.692Z,4.60
2022-11-19T03:12:27.898Z,4.87
2022-11-19T03:14:14.165Z,5.00
2022-11-19T03:16:04.182Z,4.67
2022-11-19T03:17:08.450Z,4.90
2022-11-19T03:18:16.970Z,4.80
2022-11-19T03:19:32.816Z,4.70
2022-11-19T03:20:39.371Z,4.73
2022-11-19T03:22:18.156Z,4.50
2022-11-19T03:23:31.175Z,4.87
2022-11-19T03:24:47.111Z,4.67
2022-11-19T03:26:01.283Z,4.40
2022-11-19T03:27:09.758Z,4.30
2022-11-19T03:28:16.769Z,4.23
2022-11-19T03:29:19.929Z,4.47
2022-11-19T03:30:22.038Z,4.17
2022-11-19T03:31:25.930Z,4.47
2022-11-19T03:32:53.141Z,4.17
2022-11-19T03:33:59.393Z,4.00
2022-11-19T03:35:05.974Z,4.63
2022-11-19T03:36:12.213Z,4.30
2022-11-19T03:37:17.018Z,4.50
2022-11-19T03:38:40.432Z,4.70
2022-11-19T03:39:43.587Z,4.67
2022-11-19T03:40:46.057Z,4.73
2022-11-19T03:41:49.817Z,5.10
2022-11-19T03:42:54.753Z,4.83
2022-11-19T03:44:03.633Z,4.57
2022-11-19T03:45:11.422Z,4.60
2022-11-19T03:46:17.300Z,4.50
2022-11-19T03:47:41.397Z,5.00
2022-11-19T03:48:45.306Z,4.90
2022-11-19T03:49:51.861Z,4.80
2022-11-19T03:51:07.988Z,4.37
2022-11-19T03:52:13.568Z,4.53
2022-11-19T03:53:15.668Z,4.47
2022-11-19T03:54:17.687Z,4.87
2022-11-19T03:55:23.236Z,4.93
2022-11-19T03:56:27.901Z,4.60
2022-11-19T03:57:29.319Z,4.63
2022-11-19T03:58:40.683Z,4.43
2022-11-19T03:59:42.336Z,4.53
2022-11-19T04:00:43.749Z,4.97
2022-11-19T04:01:49.685Z,4.60
2022-11-19T04:02:51.104Z,4.53
2022-11-19T04:04:11.168Z,4.20
2022-11-19T04:05:12.777Z,5.30
2022-11-19T04:06:14.227Z,4.47
2022-11-19T04:07:22.089Z,4.53
2022-11-19T04:08:23.560Z,4.37
2022-11-19T04:09:24.957Z,4.23
2022-11-19T04:10:26.316Z,4.80
2022-11-19T04:12:28.317Z,4.50
2022-11-19T04:13:29.737Z,4.43
2022-11-19T04:14:31.479Z,4.40
2022-11-19T04:15:32.918Z,4.37
2022-11-19T04:16:34.367Z,4.27
2022-11-19T04:17:36.064Z,4.53
2022-11-19T04:18:37.465Z,4.20
2022-11-19T04:19:39.083Z,4.20
2022-11-19T04:20:40.537Z,4.27
2022-11-19T04:21:41.912Z,4.57
2022-11-19T04:22:43.551Z,4.60
2022-11-19T04:23:45.174Z,4.23
2022-11-19T04:24:46.786Z,4.73
2022-11-19T04:25:48.239Z,4.53
2022-11-19T04:26:49.704Z,4.40
2022-11-19T04:27:51.193Z,4.37
2022-11-19T04:28:53.210Z,4.13
2022-11-19T04:29:54.592Z,4.57
2022-11-19T04:30:55.977Z,4.03
2022-11-19T04:31:57.416Z,4.20
2022-11-19T04:32:59.341Z,4.17
2022-11-19T04:34:01.091Z,3.90
2022-11-19T04:35:02.555Z,4.57
2022-11-19T04:36:04.619Z,4.40
2022-11-19T04:37:06.087Z,3.87
2022-11-19T04:38:07.536Z,4.10
2022-11-19T04:39:12.331Z,3.87
2022-11-19T04:40:14.728Z,4.93
2022-11-19T04:41:16.191Z,4.27
2022-11-19T04:42:17.972Z,4.13
2022-11-19T04:43:19.448Z,4.43
2022-11-19T04:44:20.962Z,4.50
2022-11-19T04:45:22.375Z,4.30
2022-11-19T04:46:23.865Z,4.20
2022-11-19T04:47:25.309Z,4.37
2022-11-19T04:48:26.688Z,4.30
2022-11-19T04:49:28.379Z,4.30
2022-11-19T04:50:29.869Z,4.07
2022-11-19T04:51:31.559Z,3.93
2022-11-19T04:52:37.708Z,4.00
2022-11-19T04:53:42.133Z,3.97
2022-11-19T04:54:43.680Z,4.27
2022-11-19T04:55:45.095Z,4.40
2022-11-19T04:56:46.472Z,4.20
2022-11-19T04:57:51.662Z,4.40
2022-11-19T04:58:53.124Z,4.10
2022-11-19T04:59:54.540Z,4.27
2022-11-19T05:00:55.955Z,4.80
2022-11-19T05:01:57.420Z,4.10
2022-11-19T05:02:59.063Z,4.50
2022-11-19T05:04:00.462Z,4.20
2022-11-19T05:05:01.907Z,3.97
2022-11-19T05:06:03.669Z,4.23
2022-11-19T05:07:05.214Z,3.93
2022-11-19T05:08:06.872Z,4.37
2022-11-19T05:09:08.345Z,4.57
2022-11-19T05:10:10.045Z,4.63
2022-11-19T05:11:11.611Z,4.83
2022-11-19T05:12:13.086Z,3.97
2022-11-19T05:13:14.652Z,4.33
2022-11-19T05:14:16.125Z,4.37
2022-11-19T05:15:18.060Z,4.40
2022-11-19T05:16:19.470Z,4.10
2022-11-19T05:17:21.139Z,4.40
2022-11-19T05:18:24.065Z,4.47
2022-11-19T05:19:25.496Z,4.47
2022-11-19T05:20:26.925Z,4.17
2022-11-19T05:21:28.882Z,4.30
2022-11-19T05:22:30.264Z,4.37
2022-11-19T05:23:31.688Z,4.37
2022-11-19T05:24:33.317Z,4.40
2022-11-19T05:25:35.071Z,4.37
2022-11-19T05:26:36.877Z,4.13
2022-11-19T05:27:38.374Z,4.13
2022-11-19T05:28:40.281Z,4.13
2022-11-19T05:29:41.772Z,4.03
2022-11-19T05:30:43.225Z,3.87
2022-11-19T05:31:44.690Z,4.50
2022-11-19T05:32:47.523Z,4.80
2022-11-19T05:33:48.998Z,4.47
2022-11-19T05:34:50.875Z,4.43
2022-11-19T05:35:52.309Z,4.00
2022-11-19T05:36:53.686Z,5.43
2022-11-19T05:37:55.564Z,4.23
2022-11-19T05:38:57.020Z,4.30
2022-11-19T05:39:58.520Z,4.83
2022-11-19T05:40:59.935Z,4.77
2022-11-19T05:42:01.302Z,4.70
2022-11-19T05:43:08.580Z,4.67
2022-11-19T05:44:09.970Z,4.60
2022-11-19T05:45:11.890Z,4.90
2022-11-19T05:46:13.373Z,4.07
2022-11-19T05:47:17.859Z,4.43
2022-11-19T05:48:19.832Z,4.00
2022-11-19T05:49:21.440Z,4.00
2022-11-19T05:50:23.523Z,4.50
2022-11-19T05:51:24.921Z,4.27
2022-11-19T05:52:26.361Z,4.67
2022-11-19T05:53:28.045Z,4.07
2022-11-19T05:54:29.514Z,4.27
2022-11-19T05:55:31.743Z,4.00
2022-11-19T05:56:33.268Z,3.80
2022-11-19T05:57:34.705Z,3.80
2022-11-19T05:58:36.146Z,4.07
2022-11-19T05:59:43.573Z,4.17
2022-11-19T06:00:45.764Z,4.43
2022-11-19T06:01:47.337Z,4.00
2022-11-19T06:02:48.804Z,4.37
2022-11-19T06:03:50.367Z,4.00
2022-11-19T06:04:51.782Z,4.30
2022-11-19T06:05:53.263Z,3.90
2022-11-19T06:06:54.679Z,4.00
2022-11-19T06:07:56.159Z,4.40
2022-11-19T06:08:57.600Z,4.30
2022-11-19T06:09:59.485Z,4.03
2022-11-19T06:11:04.581Z,4.10
2022-11-19T06:12:06.294Z,4.17
2022-11-19T06:13:07.760Z,4.47
2022-11-19T06:14:09.211Z,4.50
2022-11-19T06:15:10.849Z,4.40
2022-11-19T06:16:12.240Z,4.33
2022-11-19T06:17:13.648Z,4.17
2022-11-19T06:18:15.049Z,3.93
2022-11-19T06:19:17.293Z,4.00
2022-11-19T06:20:19.100Z,4.23
2022-11-19T06:21:20.904Z,4.53
2022-11-19T06:22:22.340Z,4.37
2022-11-19T06:23:23.759Z,4.53
2022-11-19T06:24:25.194Z,4.00
2022-11-19T06:25:26.844Z,4.43
2022-11-19T06:26:29.576Z,4.37
2022-11-19T06:27:31.156Z,4.60
2022-11-19T06:28:32.581Z,4.53
2022-11-19T06:29:33.945Z,4.20
2022-11-19T06:30:35.399Z,4.03
2022-11-19T06:31:36.905Z,4.03
2022-11-19T06:32:38.285Z,4.20
2022-11-19T06:33:40.668Z,4.07
2022-11-19T06:34:42.071Z,4.60
2022-11-19T06:35:43.444Z,4.70
2022-11-19T06:36:50.130Z,4.50
2022-11-19T06:37:52.076Z,4.50
2022-11-19T06:38:53.566Z,3.97
2022-11-19T06:39:55.435Z,4.03
2022-11-19T06:40:56.804Z,4.43
2022-11-19T06:42:18.229Z,3.77
2022-11-19T06:43:19.629Z,4.10
2022-11-19T06:44:21.010Z,4.67
2022-11-19T06:45:22.426Z,4.10
2022-11-19T06:46:24.145Z,3.93
2022-11-19T06:47:25.611Z,5.27
2022-11-19T06:48:27.151Z,4.43
2022-11-19T06:49:28.517Z,3.83
2022-11-19T06:50:31.021Z,3.73
2022-11-19T06:51:32.900Z,3.63
2022-11-19T06:52:34.712Z,3.70
2022-11-19T06:53:36.562Z,4.17
2022-11-19T06:54:42.839Z,3.67
2022-11-19T06:55:44.653Z,4.40
2022-11-19T06:56:46.144Z,3.93
2022-11-19T06:57:48.432Z,3.90
2022-11-19T06:58:49.834Z,4.00
2022-11-19T06:59:51.501Z,3.80
2022-11-19T07:00:53.294Z,3.90
2022-11-19T07:01:54.767Z,5.00
2022-11-19T07:02:56.504Z,3.73
2022-11-19T07:03:57.915Z,3.83
2022-11-19T07:04:59.319Z,5.00
2022-11-19T07:06:03.260Z,3.60
2022-11-19T07:07:05.578Z,3.90
2022-11-19T07:08:06.971Z,4.50
2022-11-19T07:09:08.341Z,3.67
2022-11-19T07:10:09.990Z,3.60
2022-11-19T07:11:26.726Z,3.40
2022-11-19T07:12:28.188Z,4.00
2022-11-19T07:13:49.597Z,4.17
2022-11-19T07:14:51.053Z,3.67
2022-11-19T07:15:52.422Z,3.63
2022-11-19T07:16:53.833Z,3.67
2022-11-19T07:17:55.225Z,4.43
2022-11-19T07:19:01.281Z,3.73
2022-11-19T07:20:02.864Z,3.97
2022-11-19T07:21:04.431Z,3.97
2022-11-19T07:22:05.877Z,3.53
2022-11-19T07:23:11.148Z,3.43
2022-11-19T07:24:13.083Z,3.30
2022-11-19T07:25:14.851Z,3.50
2022-11-19T07:26:16.352Z,3.23
2022-11-19T07:27:17.825Z,3.43
2022-11-19T07:28:19.241Z,3.40
2022-11-19T07:29:20.776Z,3.40
2022-11-19T07:30:22.472Z,3.20
2022-11-19T07:31:24.589Z,3.40
2022-11-19T07:32:26.816Z,3.00
2022-11-19T07:33:28.595Z,3.00
2022-11-19T07:34:29.970Z,3.10
2022-11-19T07:35:31.774Z,2.97
2022-11-19T07:36:33.182Z,3.10
2022-11-19T07:37:34.572Z,3.07
2022-11-19T07:38:37.369Z,3.30
2022-11-19T07:39:38.768Z,3.30
2022-11-19T07:40:40.564Z,3.20
2022-11-19T07:42:00.937Z,2.93
2022-11-19T07:43:02.439Z,3.00
2022-11-19T07:44:08.481Z,3.10
2022-11-19T07:45:10.238Z,2.90
2022-11-19T07:46:11.880Z,2.63
2022-11-19T07:47:13.280Z,2.90
2022-11-19T07:48:15.358Z,2.90
2022-11-19T07:49:17.170Z,2.63
2022-11-19T07:50:19.136Z,2.60
2022-11-19T07:51:21.557Z,2.50
2022-11-19T07:52:22.935Z,2.60
2022-11-19T07:53:24.313Z,2.60
2022-11-19T07:54:25.882Z,2.83
2022-11-19T07:55:27.245Z,2.20
2022-11-19T07:56:28.682Z,2.00
2022-11-19T07:57:30.711Z,2.50
2022-11-19T07:58:32.381Z,2.30
2022-11-19T07:59:33.922Z,2.30
2022-11-19T08:00:35.423Z,3.10
2022-11-19T08:01:37.428Z,2.43
2022-11-19T08:02:39.021Z,2.47
2022-11-19T08:03:42.651Z,2.47
2022-11-19T08:04:44.146Z,2.53
2022-11-19T08:05:46.187Z,3.20
2022-11-19T08:06:47.655Z,3.00
2022-11-19T08:07:49.174Z,2.50
2022-11-19T08:08:50.618Z,2.30
2022-11-19T08:09:52.013Z,2.60
2022-11-19T08:10:53.526Z,3.07
2022-11-19T08:11:54.924Z,2.27
2022-11-19T08:13:05.822Z,2.47
2022-11-19T08:14:07.485Z,2.40
2022-11-19T08:15:09.465Z,2.70
2022-11-19T08:16:13.699Z,2.10
2022-11-19T08:17:33.735Z,2.33
2022-11-19T08:18:35.429Z,2.40
2022-11-19T08:19:36.823Z,2.83
2022-11-19T08:20:40.521Z,2.47
2022-11-19T08:21:44.392Z,2.40
2022-11-19T08:22:45.794Z,2.20
2022-11-19T08:23:47.289Z,2.73
2022-11-19T08:24:48.791Z,2.30
2022-11-19T08:25:50.714Z,2.33
2022-11-19T08:26:52.221Z,2.40
2022-11-19T08:27:53.905Z,2.20
2022-11-19T08:28:55.589Z,2.77
2022-11-19T08:29:57.002Z,2.43
2022-11-19T08:31:06.740Z,2.30
2022-11-19T08:32:08.426Z,2.70
2022-11-19T08:33:09.809Z,2.20
2022-11-19T08:34:11.320Z,2.10
2022-11-19T08:35:12.736Z,2.30
2022-11-19T08:36:14.160Z,2.20
2022-11-19T08:37:15.787Z,2.27
2022-11-19T08:38:17.450Z,2.43
2022-11-19T08:39:19.166Z,2.60
2022-11-19T08:40:20.593Z,2.30
2022-11-19T08:41:40.772Z,2.40
2022-11-19T08:43:00.821Z,2.30
2022-11-19T08:44:02.654Z,2.20
2022-11-19T08:45:04.925Z,2.10
2022-11-19T08:46:07.235Z,2.47
2022-11-19T08:47:08.780Z,2.73
2022-11-19T08:48:10.517Z,2.60
2022-11-19T08:49:12.214Z,2.50
2022-11-19T08:50:14.167Z,2.30
2022-11-19T08:51:16.523Z,2.40
2022-11-19T08:52:18.063Z,2.60
2022-11-19T08:53:19.519Z,2.47
2022-11-19T08:54:21.364Z,2.13
2022-11-19T08:55:23.756Z,2.00
2022-11-19T08:56:25.461Z,2.20
2022-11-19T08:57:26.895Z,2.20
2022-11-19T08:58:28.350Z,2.40
2022-11-19T08:59:29.764Z,2.60
2022-11-19T09:00:32.753Z,2.27
2022-11-19T09:01:34.322Z,2.27
2022-11-19T09:02:36.225Z,2.30
2022-11-19T09:03:38.351Z,2.20
2022-11-19T09:04:41.376Z,2.03
2022-11-19T09:05:42.799Z,2.13
2022-11-19T09:06:44.263Z,2.27
2022-11-19T09:07:45.637Z,2.50
2022-11-19T09:08:47.014Z,2.00
2022-11-19T09:09:48.891Z,2.40
2022-11-19T09:10:50.295Z,2.70
2022-11-19T09:11:51.943Z,2.50
2022-11-19T09:12:53.459Z,2.40
2022-11-19T09:13:57.067Z,2.30
2022-11-19T09:14:58.513Z,2.33
2022-11-19T09:16:00.203Z,2.37
2022-11-19T09:17:01.629Z,2.40
2022-11-19T09:18:03.078Z,2.50
2022-11-19T09:19:04.764Z,2.17
2022-11-19T09:20:07.335Z,2.13
2022-11-19T09:21:10.527Z,2.10
2022-11-19T09:22:12.210Z,2.10
2022-11-19T09:23:14.072Z,2.03
2022-11-19T09:24:15.461Z,1.90
2022-11-19T09:25:17.170Z,2.13
2022-11-19T09:26:19.279Z,2.37
2022-11-19T09:27:20.836Z,2.33
2022-11-19T09:28:22.233Z,2.43
2022-11-19T09:29:23.664Z,2.57
2022-11-19T09:30:25.525Z,1.90
2022-11-19T09:31:27.330Z,2.23
2022-11-19T09:32:28.988Z,2.50
2022-11-19T09:33:32.108Z,2.07
2022-11-19T09:34:35.177Z,2.20
2022-11-19T09:35:36.617Z,2.40
2022-11-19T09:36:38.087Z,2.10
2022-11-19T09:37:39.523Z,2.70
2022-11-19T09:38:41.283Z,2.17
2022-11-19T09:39:42.771Z,2.70
2022-11-19T09:40:50.411Z,2.53
2022-11-19T09:42:25.856Z,2.40
2022-11-19T09:44:04.746Z,2.40
2022-11-19T09:45:15.257Z,2.67
2022-11-19T09:46:19.441Z,2.40
2022-11-19T09:47:33.824Z,2.40
2022-11-19T09:48:40.555Z,2.20
2022-11-19T09:49:50.600Z,2.40
2022-11-19T09:51:14.709Z,2.50
2022-11-19T09:52:22.454Z,2.40
2022-11-19T09:53:24.618Z,2.30
2022-11-19T09:54:26.747Z,2.30
2022-11-19T09:55:35.507Z,2.73
2022-11-19T09:56:45.744Z,2.40
2022-11-19T09:57:55.086Z,2.23
2022-11-19T09:58:57.683Z,2.50
2022-11-19T10:00:01.651Z,2.40
2022-11-19T10:01:18.395Z,2.90
2022-11-19T10:02:22.561Z,4.00
2022-11-19T10:03:31.586Z,4.10
2022-11-19T10:04:34.860Z,3.90
2022-11-19T10:05:45.091Z,3.77
2022-11-19T10:07:11.428Z,2.97
2022-11-19T10:08:36.903Z,2.60
2022-11-19T10:10:16.930Z,2.80
2022-11-19T10:11:40.050Z,2.33
2022-11-19T10:13:12.094Z,2.60
2022-11-19T10:14:42.056Z,2.10
2022-11-19T10:16:04.363Z,2.23
2022-11-19T10:17:30.445Z,2.60
2022-11-19T10:18:40.954Z,2.30
2022-11-19T10:20:18.973Z,2.30
2022-11-19T10:21:54.821Z,2.20
2022-11-19T10:22:57.990Z,2.80
2022-11-19T10:24:17.937Z,2.87
2022-11-19T10:25:23.666Z,1.80
2022-11-19T10:26:33.919Z,2.87
2022-11-19T10:27:51.353Z,2.40
2022-11-19T10:28:57.746Z,2.40
2022-11-19T10:30:04.652Z,2.73
2022-11-19T10:31:24.360Z,2.97
2022-11-19T10:32:25.797Z,2.13
2022-11-19T10:33:35.204Z,2.30
2022-11-19T10:34:38.487Z,2.50
2022-11-19T10:35:47.863Z,2.00
2022-11-19T10:36:56.499Z,2.70
2022-11-19T10:38:04.279Z,3.53
2022-11-19T10:39:27.190Z,2.90
2022-11-19T10:40:36.969Z,2.33
2022-11-19T10:41:51.620Z,2.30
2022-11-19T10:42:59.232Z,2.30
2022-11-19T10:44:37.459Z,2.53
2022-11-19T10:45:38.985Z,2.17
2022-11-19T10:46:42.174Z,2.40
2022-11-19T10:47:48.077Z,2.33
2022-11-19T10:48:58.685Z,2.53
2022-11-19T10:50:00.246Z,3.10
2022-11-19T10:51:01.704Z,2.70
2022-11-19T10:52:03.309Z,2.43
2022-11-19T10:53:26.016Z,3.00
2022-11-19T10:54:30.593Z,2.63
2022-11-19T10:55:42.287Z,4.60
2022-11-19T10:56:43.762Z,2.20
2022-11-19T10:57:48.253Z,2.40
2022-11-19T10:58:57.426Z,2.27
2022-11-19T11:00:00.401Z,3.03
2022-11-19T11:01:04.871Z,2.50
2022-11-19T11:02:26.484Z,2.47
2022-11-19T11:03:49.056Z,2.47
2022-11-19T11:05:14.113Z,2.37
2022-11-19T11:06:15.634Z,2.70
2022-11-19T11:07:17.674Z,2.83
2022-11-19T11:08:19.225Z,2.57
2022-11-19T11:09:35.037Z,2.73
2022-11-19T11:10:43.265Z,2.70
2022-11-19T11:12:04.949Z,2.67
2022-11-19T11:13:55.457Z,2.10
2022-11-19T11:15:07.291Z,2.50
2022-11-19T11:16:15.526Z,2.53
2022-11-19T11:17:24.861Z,2.13
2022-11-19T11:18:29.790Z,2.10
2022-11-19T11:19:33.498Z,1.90
2022-11-19T11:20:37.039Z,2.17
2022-11-19T11:21:39.686Z,2.13
2022-11-19T11:22:42.121Z,2.43
2022-11-19T11:24:04.386Z,2.20
2022-11-19T11:25:21.772Z,2.40
2022-11-19T11:26:28.469Z,2.50
2022-11-19T11:27:33.237Z,2.53
2022-11-19T11:28:35.136Z,2.27
2022-11-19T11:29:36.621Z,2.50
2022-11-19T11:30:38.552Z,3.70
2022-11-19T11:31:45.289Z,3.60
2022-11-19T11:32:47.707Z,2.40
2022-11-19T11:33:58.029Z,2.23
2022-11-19T11:35:02.349Z,2.43
2022-11-19T11:36:12.549Z,2.43
2022-11-19T11:37:14.671Z,2.20
2022-11-19T11:38:20.263Z,2.13
2022-11-19T11:39:44.228Z,2.50
2022-11-19T11:41:53.416Z,2.20
2022-11-19T11:42:29.048Z,2.40
2022-11-19T11:43:32.543Z,2.70
2022-11-19T11:44:36.955Z,1.80
2022-11-19T11:45:38.608Z,2.27
2022-11-19T11:47:14.400Z,2.30
2022-11-19T11:48:22.095Z,2.10
2022-11-19T11:49:39.643Z,2.07
2022-11-19T11:50:46.146Z,2.23
2022-11-19T11:51:55.156Z,2.23
2022-11-19T11:52:57.927Z,2.20
2022-11-19T11:54:07.450Z,1.80
2022-11-19T11:55:31.712Z,1.90
2022-11-19T11:56:33.381Z,1.83
2022-11-19T11:57:37.532Z,1.90
2022-11-19T11:58:39.069Z,2.03
2022-11-19T11:59:40.502Z,2.33
2022-11-19T12:00:44.433Z,2.17
2022-11-19T12:01:54.567Z,2.07
2022-11-19T12:03:06.221Z,2.10
2022-11-19T12:04:12.874Z,2.13
2022-11-19T12:05:18.278Z,2.30
2022-11-19T12:06:22.571Z,2.57
2022-11-19T12:07:37.508Z,1.80
2022-11-19T12:09:01.979Z,2.20
2022-11-19T12:10:04.033Z,2.40
2022-11-19T12:11:18.547Z,2.40
2022-11-19T12:12:33.709Z,2.20
2022-11-19T12:13:56.151Z,2.27
2022-11-19T12:15:05.945Z,2.40
2022-11-19T12:16:28.001Z,2.03
2022-11-19T12:17:39.224Z,2.40
2022-11-19T12:18:46.417Z,2.33
2022-11-19T12:19:59.711Z,2.13
2022-11-19T12:21:06.342Z,2.50
2022-11-19T12:22:36.369Z,2.40
2022-11-19T12:24:05.783Z,2.37
2022-11-19T12:25:30.429Z,2.20
2022-11-19T12:26:54.277Z,2.70
2022-11-19T12:28:41.070Z,2.00
2022-11-19T12:29:58.539Z,2.23
2022-11-19T12:31:18.079Z,2.20
2022-11-19T12:32:47.186Z,3.40
2022-11-19T12:33:51.851Z,2.20
2022-11-19T12:34:56.509Z,4.27
2022-11-19T12:36:29.747Z,2.60
2022-11-19T12:38:07.131Z,2.20
2022-11-19T12:39:33.304Z,2.40
2022-11-19T12:40:49.951Z,2.47
2022-11-19T12:42:06.597Z,2.40
2022-11-19T12:43:26.890Z,2.10
2022-11-19T12:44:53.299Z,2.37
2022-11-19T12:46:10.416Z,2.00
2022-11-19T12:47:49.140Z,2.07
2022-11-19T12:48:53.547Z,2.30
2022-11-19T12:50:12.127Z,2.10
2022-11-19T12:51:46.993Z,2.40
2022-11-19T12:53:07.222Z,2.30
2022-11-19T12:54:45.282Z,2.40
2022-11-19T12:56:00.220Z,2.33
2022-11-19T12:57:18.809Z,2.03
2022-11-19T12:58:55.374Z,2.73
2022-11-19T13:00:06.017Z,2.63
2022-11-19T13:01:16.716Z,3.00
2022-11-19T13:02:25.652Z,2.57
2022-11-19T13:03:43.530Z,2.53
2022-11-19T13:04:51.626Z,2.13
2022-11-19T13:05:56.127Z,2.20
2022-11-19T13:07:04.449Z,2.00
2022-11-19T13:08:32.835Z,2.07
2022-11-19T13:09:43.887Z,2.00
2022-11-19T13:10:49.380Z,2.00
2022-11-19T13:12:16.454Z,2.17
2022-11-19T13:13:25.670Z,2.40
2022-11-19T13:14:39.721Z,2.90
2022-11-19T13:15:49.849Z,4.00
2022-11-19T13:16:54.254Z,2.97
2022-11-19T13:17:59.952Z,3.47
2022-11-19T13:19:36.554Z,3.73
2022-11-19T13:20:55.290Z,3.40
2022-11-19T13:22:12.553Z,3.80
2022-11-19T13:23:25.186Z,3.83
2022-11-19T13:24:35.439Z,4.00
2022-11-19T13:25:41.962Z,3.97
2022-11-19T13:26:43.497Z,3.90
2022-11-19T13:27:48.559Z,3.73
2022-11-19T13:28:58.047Z,4.10
2022-11-19T13:30:04.385Z,3.73
2022-11-19T13:31:35.638Z,3.77
2022-11-19T13:33:06.432Z,3.90
2022-11-19T13:34:26.942Z,3.63
2022-11-19T13:35:46.277Z,3.20
2022-11-19T13:37:14.938Z,4.40
2022-11-19T13:38:23.971Z,3.97
2022-11-19T13:39:43.065Z,3.40
2022-11-19T13:40:51.349Z,4.50
2022-11-19T13:42:15.021Z,3.97
2022-11-19T13:43:37.984Z,3.90
2022-11-19T13:44:41.782Z,4.50
2022-11-19T13:45:47.402Z,3.73
2022-11-19T13:46:58.795Z,3.77
2022-11-19T13:48:22.295Z,4.07
2022-11-19T13:49:30.129Z,4.53
2022-11-19T13:50:39.644Z,4.13
2022-11-19T13:51:59.254Z,3.90
2022-11-19T13:53:12.163Z,4.43
2022-11-19T13:54:30.467Z,3.50
2022-11-19T13:55:33.901Z,4.00
2022-11-19T13:56:44.900Z,3.40
2022-11-19T13:57:46.382Z,3.70
2022-11-19T13:58:55.788Z,3.90
2022-11-19T14:00:20.930Z,4.13
2022-11-19T14:01:50.354Z,3.67
2022-11-19T14:03:20.690Z,4.13
2022-11-19T14:04:40.200Z,4.23
2022-11-19T14:06:04.813Z,3.97
2022-11-19T14:07:17.971Z,4.07
2022-11-19T14:08:46.872Z,3.90
2022-11-19T14:10:04.325Z,4.00
2022-11-19T14:11:30.537Z,4.37
2022-11-19T14:12:38.166Z,3.77
2022-11-19T14:13:49.125Z,4.23
2022-11-19T14:15:19.382Z,4.30
2022-11-19T14:17:06.554Z,4.30
2022-11-19T14:18:41.747Z,3.97
2022-11-19T14:20:10.127Z,3.83
2022-11-19T14:21:45.367Z,4.53
2022-11-19T14:23:15.457Z,4.00
2022-11-19T14:24:44.145Z,4.53
2022-11-19T14:26:06.771Z,4.90
2022-11-19T14:27:21.184Z,4.27
2022-11-19T14:28:50.482Z,4.40
2022-11-19T14:29:55.121Z,4.20
2022-11-19T14:31:04.360Z,4.17
2022-11-19T14:32:06.238Z,4.00
2022-11-19T14:33:45.505Z,3.70
2022-11-19T14:35:02.020Z,4.20
2022-11-19T14:36:14.707Z,4.10
2022-11-19T14:37:26.856Z,4.13
2022-11-19T14:38:36.443Z,4.10
2022-11-19T14:39:44.757Z,3.60
2022-11-19T14:40:47.209Z,3.80
2022-11-19T14:42:13.406Z,4.20
2022-11-19T14:43:36.575Z,3.87
2022-11-19T14:44:38.036Z,3.97
2022-11-19T14:45:39.484Z,4.30
2022-11-19T14:46:44.366Z,4.20
2022-11-19T14:47:47.885Z,4.00
2022-11-19T14:48:56.649Z,4.27
2022-11-19T14:50:00.691Z,3.87
2022-11-19T14:51:09.138Z,3.67
2022-11-19T14:52:24.986Z,4.10
2022-11-19T14:53:26.492Z,3.53
2022-11-19T14:54:37.093Z,4.00
2022-11-19T14:55:39.433Z,3.40
2022-11-19T14:56:42.800Z,4.40
2022-11-19T14:57:52.780Z,3.67
2022-11-19T14:59:14.982Z,3.33
2022-11-19T15:00:17.650Z,3.43
2022-11-19T15:01:21.513Z,3.50
2022-11-19T15:02:24.788Z,3.17